sensor_id;sensor_type;location;lat;lon;timestamp;P1;durP1;ratioP1;P2;durP2;ratioP2
6828;SDS011;17930;48.592;8.868;2023-07-02T00:01:18;2.83;;;2.50;;
6828;SDS011;17930;48.592;8.868;2023-07-02T00:03:44;4.40;;;2.70;;
6828;SDS011;17930;48.592;8.868;2023-07-02T00:06:11;2.63;;;2.43;;
6828;SDS011;17930;48.592;8.868;2023-07-02T00:08:38;4.50;;;3.07;;
6828;SDS011;17930;48.592;8.868;2023-07-02T00:11:05;3.00;;;2.70;;
6828;SDS011;17930;48.592;8.868;2023-07-02T00:13:32;3.00;;;2.70;;
6828;SDS011;17930;48.592;8.868;2023-07-02T00:15:59;4.77;;;2.50;;
6828;SDS011;17930;48.592;8.868;2023-07-02T00:18:27;2.63;;;2.40;;
6828;SDS011;17930;48.592;8.868;2023-07-02T00:21:00;3.40;;;3.10;;
6828;SDS011;17930;48.592;8.868;2023-07-02T00:23:27;2.83;;;2.53;;
6828;SDS011;17930;48.592;8.868;2023-07-02T00:25:54;4.10;;;2.93;;
6828;SDS011;17930;48.592;8.868;2023-07-02T00:28:20;3.67;;;2.97;;
6828;SDS011;17930;48.592;8.868;2023-07-02T00:30:47;2.60;;;2.40;;
6828;SDS011;17930;48.592;8.868;2023-07-02T00:33:13;3.13;;;2.80;;
6828;SDS011;17930;48.592;8.868;2023-07-02T00:35:43;4.50;;;2.83;;
6828;SDS011;17930;48.592;8.868;2023-07-02T00:38:09;5.03;;;2.90;;
6828;SDS011;17930;48.592;8.868;2023-07-02T00:40:36;3.83;;;2.43;;
6828;SDS011;17930;48.592;8.868;2023-07-02T00:43:03;4.07;;;3.00;;
6828;SDS011;17930;48.592;8.868;2023-07-02T00:45:30;4.97;;;2.70;;
6828;SDS011;17930;48.592;8.868;2023-07-02T00:47:56;3.07;;;2.77;;
6828;SDS011;17930;48.592;8.868;2023-07-02T00:50:24;4.13;;;3.07;;
6828;SDS011;17930;48.592;8.868;2023-07-02T00:52:52;2.73;;;2.43;;
6828;SDS011;17930;48.592;8.868;2023-07-02T00:55:20;3.50;;;3.17;;
6828;SDS011;17930;48.592;8.868;2023-07-02T00:57:47;4.20;;;2.90;;
6828;SDS011;17930;48.592;8.868;2023-07-02T01:00:14;5.50;;;2.93;;
6828;SDS011;17930;48.592;8.868;2023-07-02T01:02:41;4.13;;;2.40;;
6828;SDS011;17930;48.592;8.868;2023-07-02T01:05:09;3.23;;;2.67;;
6828;SDS011;17930;48.592;8.868;2023-07-02T01:07:40;3.27;;;2.90;;
6828;SDS011;17930;48.592;8.868;2023-07-02T01:10:08;3.57;;;3.27;;
6828;SDS011;17930;48.592;8.868;2023-07-02T01:12:35;3.20;;;2.90;;
6828;SDS011;17930;48.592;8.868;2023-07-02T01:15:03;3.87;;;3.40;;
6828;SDS011;17930;48.592;8.868;2023-07-02T01:17:32;3.13;;;2.50;;
6828;SDS011;17930;48.592;8.868;2023-07-02T01:20:07;3.73;;;2.97;;
6828;SDS011;17930;48.592;8.868;2023-07-02T01:22:35;3.37;;;2.80;;
6828;SDS011;17930;48.592;8.868;2023-07-02T01:25:02;4.00;;;2.83;;
6828;SDS011;17930;48.592;8.868;2023-07-02T01:27:31;4.57;;;2.93;;
6828;SDS011;17930;48.592;8.868;2023-07-02T01:30:00;3.70;;;2.73;;
6828;SDS011;17930;48.592;8.868;2023-07-02T01:32:28;3.10;;;2.63;;
6828;SDS011;17930;48.592;8.868;2023-07-02T01:34:54;4.80;;;3.20;;
6828;SDS011;17930;48.592;8.868;2023-07-02T01:37:22;4.40;;;3.20;;
6828;SDS011;17930;48.592;8.868;2023-07-02T01:39:49;6.27;;;3.67;;
6828;SDS011;17930;48.592;8.868;2023-07-02T01:42:16;5.50;;;2.97;;
6828;SDS011;17930;48.592;8.868;2023-07-02T01:44:44;3.33;;;3.03;;
6828;SDS011;17930;48.592;8.868;2023-07-02T01:47:11;3.70;;;3.10;;
6828;SDS011;17930;48.592;8.868;2023-07-02T01:49:38;3.40;;;3.10;;
6828;SDS011;17930;48.592;8.868;2023-07-02T01:52:05;4.33;;;3.37;;
6828;SDS011;17930;48.592;8.868;2023-07-02T01:54:34;4.53;;;3.20;;
6828;SDS011;17930;48.592;8.868;2023-07-02T01:57:02;3.77;;;2.87;;
6828;SDS011;17930;48.592;8.868;2023-07-02T01:59:29;5.70;;;4.13;;
6828;SDS011;17930;48.592;8.868;2023-07-02T02:01:55;5.07;;;3.17;;
6828;SDS011;17930;48.592;8.868;2023-07-02T02:04:22;4.60;;;3.23;;
6828;SDS011;17930;48.592;8.868;2023-07-02T02:06:49;3.90;;;3.50;;
6828;SDS011;17930;48.592;8.868;2023-07-02T02:09:17;4.50;;;3.00;;
6828;SDS011;17930;48.592;8.868;2023-07-02T02:11:47;3.53;;;2.93;;
6828;SDS011;17930;48.592;8.868;2023-07-02T02:14:14;6.17;;;3.00;;
6828;SDS011;17930;48.592;8.868;2023-07-02T02:16:42;4.97;;;3.03;;
6828;SDS011;17930;48.592;8.868;2023-07-02T02:19:11;4.47;;;3.37;;
6828;SDS011;17930;48.592;8.868;2023-07-02T02:21:39;3.83;;;2.83;;
6828;SDS011;17930;48.592;8.868;2023-07-02T02:24:06;4.27;;;3.17;;
6828;SDS011;17930;48.592;8.868;2023-07-02T02:26:33;3.70;;;3.20;;
6828;SDS011;17930;48.592;8.868;2023-07-02T02:29:01;3.40;;;3.10;;
6828;SDS011;17930;48.592;8.868;2023-07-02T02:31:28;3.30;;;3.00;;
6828;SDS011;17930;48.592;8.868;2023-07-02T02:33:56;4.47;;;3.53;;
6828;SDS011;17930;48.592;8.868;2023-07-02T02:36:22;3.33;;;3.03;;
6828;SDS011;17930;48.592;8.868;2023-07-02T02:38:49;4.30;;;3.20;;
6828;SDS011;17930;48.592;8.868;2023-07-02T02:41:16;5.20;;;3.93;;
6828;SDS011;17930;48.592;8.868;2023-07-02T02:43:42;4.33;;;3.43;;
6828;SDS011;17930;48.592;8.868;2023-07-02T02:46:10;5.67;;;3.20;;
6828;SDS011;17930;48.592;8.868;2023-07-02T02:48:38;4.90;;;3.57;;
6828;SDS011;17930;48.592;8.868;2023-07-02T02:51:04;4.83;;;3.43;;
6828;SDS011;17930;48.592;8.868;2023-07-02T02:53:31;5.97;;;3.60;;
6828;SDS011;17930;48.592;8.868;2023-07-02T02:55:58;4.03;;;3.37;;
6828;SDS011;17930;48.592;8.868;2023-07-02T02:58:24;5.73;;;3.53;;
6828;SDS011;17930;48.592;8.868;2023-07-02T03:00:53;4.67;;;3.80;;
6828;SDS011;17930;48.592;8.868;2023-07-02T03:03:22;6.27;;;3.83;;
6828;SDS011;17930;48.592;8.868;2023-07-02T03:05:49;5.10;;;3.83;;
6828;SDS011;17930;48.592;8.868;2023-07-02T03:08:16;4.60;;;3.37;;
6828;SDS011;17930;48.592;8.868;2023-07-02T03:10:43;3.93;;;3.50;;
6828;SDS011;17930;48.592;8.868;2023-07-02T03:13:09;6.80;;;4.00;;
6828;SDS011;17930;48.592;8.868;2023-07-02T03:15:36;6.97;;;4.00;;
6828;SDS011;17930;48.592;8.868;2023-07-02T03:18:03;4.50;;;4.00;;
6828;SDS011;17930;48.592;8.868;2023-07-02T03:20:31;8.67;;;4.50;;
6828;SDS011;17930;48.592;8.868;2023-07-02T03:22:57;4.07;;;3.67;;
6828;SDS011;17930;48.592;8.868;2023-07-02T03:25:24;6.17;;;4.33;;
6828;SDS011;17930;48.592;8.868;2023-07-02T03:27:51;6.63;;;3.93;;
6828;SDS011;17930;48.592;8.868;2023-07-02T03:30:17;4.30;;;3.40;;
6828;SDS011;17930;48.592;8.868;2023-07-02T03:32:44;5.57;;;3.80;;
6828;SDS011;17930;48.592;8.868;2023-07-02T03:35:11;7.33;;;3.67;;
6828;SDS011;17930;48.592;8.868;2023-07-02T03:37:38;3.47;;;3.13;;
6828;SDS011;17930;48.592;8.868;2023-07-02T03:40:07;4.87;;;3.30;;
6828;SDS011;17930;48.592;8.868;2023-07-02T03:42:34;5.87;;;3.37;;
6828;SDS011;17930;48.592;8.868;2023-07-02T03:45:01;6.20;;;3.97;;
6828;SDS011;17930;48.592;8.868;2023-07-02T03:47:28;6.13;;;3.53;;
6828;SDS011;17930;48.592;8.868;2023-07-02T03:49:55;3.93;;;3.53;;
6828;SDS011;17930;48.592;8.868;2023-07-02T03:52:21;5.30;;;3.60;;
6828;SDS011;17930;48.592;8.868;2023-07-02T03:54:50;5.40;;;3.80;;
6828;SDS011;17930;48.592;8.868;2023-07-02T03:57:16;4.60;;;3.90;;
6828;SDS011;17930;48.592;8.868;2023-07-02T03:59:43;6.43;;;3.83;;
6828;SDS011;17930;48.592;8.868;2023-07-02T04:02:11;6.10;;;3.40;;
6828;SDS011;17930;48.592;8.868;2023-07-02T04:04:37;6.07;;;3.80;;
6828;SDS011;17930;48.592;8.868;2023-07-02T04:07:04;5.47;;;3.50;;
6828;SDS011;17930;48.592;8.868;2023-07-02T04:09:31;7.80;;;3.20;;
6828;SDS011;17930;48.592;8.868;2023-07-02T04:11:59;3.90;;;2.87;;
6828;SDS011;17930;48.592;8.868;2023-07-02T04:14:26;4.77;;;2.90;;
6828;SDS011;17930;48.592;8.868;2023-07-02T04:16:53;4.70;;;3.00;;
6828;SDS011;17930;48.592;8.868;2023-07-02T04:19:19;4.63;;;3.10;;
6828;SDS011;17930;48.592;8.868;2023-07-02T04:21:46;4.00;;;2.73;;
6828;SDS011;17930;48.592;8.868;2023-07-02T04:24:13;3.37;;;2.90;;
6828;SDS011;17930;48.592;8.868;2023-07-02T04:26:39;5.13;;;3.17;;
6828;SDS011;17930;48.592;8.868;2023-07-02T04:29:09;5.93;;;3.30;;
6828;SDS011;17930;48.592;8.868;2023-07-02T04:31:36;5.10;;;3.20;;
6828;SDS011;17930;48.592;8.868;2023-07-02T04:34:02;4.70;;;3.27;;
6828;SDS011;17930;48.592;8.868;2023-07-02T04:36:30;8.20;;;3.27;;
6828;SDS011;17930;48.592;8.868;2023-07-02T04:38:57;4.77;;;3.27;;
6828;SDS011;17930;48.592;8.868;2023-07-02T04:41:24;4.90;;;2.90;;
6828;SDS011;17930;48.592;8.868;2023-07-02T04:43:51;5.97;;;3.80;;
6828;SDS011;17930;48.592;8.868;2023-07-02T04:46:19;5.87;;;3.10;;
6828;SDS011;17930;48.592;8.868;2023-07-02T04:48:45;3.33;;;2.97;;
6828;SDS011;17930;48.592;8.868;2023-07-02T04:51:12;5.00;;;3.40;;
6828;SDS011;17930;48.592;8.868;2023-07-02T04:53:39;2.97;;;2.70;;
6828;SDS011;17930;48.592;8.868;2023-07-02T04:56:05;6.17;;;3.00;;
6828;SDS011;17930;48.592;8.868;2023-07-02T04:58:32;5.03;;;2.97;;
6828;SDS011;17930;48.592;8.868;2023-07-02T05:00:59;4.57;;;2.90;;
6828;SDS011;17930;48.592;8.868;2023-07-02T05:03:27;4.83;;;3.13;;
6828;SDS011;17930;48.592;8.868;2023-07-02T05:05:54;4.50;;;3.10;;
6828;SDS011;17930;48.592;8.868;2023-07-02T05:08:21;7.10;;;3.40;;
6828;SDS011;17930;48.592;8.868;2023-07-02T05:10:47;5.83;;;3.13;;
6828;SDS011;17930;48.592;8.868;2023-07-02T05:13:14;5.33;;;3.90;;
6828;SDS011;17930;48.592;8.868;2023-07-02T05:15:41;3.47;;;3.17;;
6828;SDS011;17930;48.592;8.868;2023-07-02T05:18:08;4.27;;;3.40;;
6828;SDS011;17930;48.592;8.868;2023-07-02T05:20:35;4.03;;;2.87;;
6828;SDS011;17930;48.592;8.868;2023-07-02T05:23:03;4.27;;;3.03;;
6828;SDS011;17930;48.592;8.868;2023-07-02T05:25:29;6.37;;;3.50;;
6828;SDS011;17930;48.592;8.868;2023-07-02T05:27:57;5.83;;;3.40;;
6828;SDS011;17930;48.592;8.868;2023-07-02T05:30:24;6.67;;;3.30;;
6828;SDS011;17930;48.592;8.868;2023-07-02T05:32:51;5.73;;;3.00;;
6828;SDS011;17930;48.592;8.868;2023-07-02T05:35:17;3.77;;;3.03;;
6828;SDS011;17930;48.592;8.868;2023-07-02T05:37:46;5.03;;;3.00;;
6828;SDS011;17930;48.592;8.868;2023-07-02T05:40:12;6.10;;;3.97;;
6828;SDS011;17930;48.592;8.868;2023-07-02T05:42:39;3.57;;;3.10;;
6828;SDS011;17930;48.592;8.868;2023-07-02T05:45:08;6.27;;;3.43;;
6828;SDS011;17930;48.592;8.868;2023-07-02T05:47:36;4.90;;;3.17;;
6828;SDS011;17930;48.592;8.868;2023-07-02T05:50:02;4.50;;;3.23;;
6828;SDS011;17930;48.592;8.868;2023-07-02T05:52:30;6.57;;;3.17;;
6828;SDS011;17930;48.592;8.868;2023-07-02T05:54:58;5.83;;;3.50;;
6828;SDS011;17930;48.592;8.868;2023-07-02T05:57:24;5.10;;;3.37;;
6828;SDS011;17930;48.592;8.868;2023-07-02T05:59:51;5.87;;;3.03;;
6828;SDS011;17930;48.592;8.868;2023-07-02T06:02:17;7.70;;;3.70;;
6828;SDS011;17930;48.592;8.868;2023-07-02T06:04:44;6.63;;;4.40;;
6828;SDS011;17930;48.592;8.868;2023-07-02T06:07:11;8.17;;;4.03;;
6828;SDS011;17930;48.592;8.868;2023-07-02T06:09:37;10.00;;;5.20;;
6828;SDS011;17930;48.592;8.868;2023-07-02T06:12:05;7.27;;;3.77;;
6828;SDS011;17930;48.592;8.868;2023-07-02T06:14:33;6.00;;;3.60;;
6828;SDS011;17930;48.592;8.868;2023-07-02T06:16:59;5.93;;;3.50;;
6828;SDS011;17930;48.592;8.868;2023-07-02T06:19:26;8.53;;;4.10;;
6828;SDS011;17930;48.592;8.868;2023-07-02T06:21:52;6.03;;;4.23;;
6828;SDS011;17930;48.592;8.868;2023-07-02T06:24:19;17.07;;;5.63;;
6828;SDS011;17930;48.592;8.868;2023-07-02T06:26:46;8.77;;;5.40;;
6828;SDS011;17930;48.592;8.868;2023-07-02T06:29:14;9.30;;;5.87;;
6828;SDS011;17930;48.592;8.868;2023-07-02T06:31:40;11.20;;;5.80;;
6828;SDS011;17930;48.592;8.868;2023-07-02T06:34:07;11.10;;;6.03;;
6828;SDS011;17930;48.592;8.868;2023-07-02T06:36:34;10.70;;;6.50;;
6828;SDS011;17930;48.592;8.868;2023-07-02T06:39:00;15.87;;;6.37;;
6828;SDS011;17930;48.592;8.868;2023-07-02T06:41:27;13.53;;;8.40;;
6828;SDS011;17930;48.592;8.868;2023-07-02T06:43:54;10.77;;;6.30;;
6828;SDS011;17930;48.592;8.868;2023-07-02T06:46:22;15.03;;;7.37;;
6828;SDS011;17930;48.592;8.868;2023-07-02T06:48:49;14.07;;;7.20;;
6828;SDS011;17930;48.592;8.868;2023-07-02T06:51:15;20.53;;;8.10;;
6828;SDS011;17930;48.592;8.868;2023-07-02T06:53:44;10.93;;;7.00;;
6828;SDS011;17930;48.592;8.868;2023-07-02T06:56:10;12.77;;;6.97;;
6828;SDS011;17930;48.592;8.868;2023-07-02T06:58:38;14.47;;;7.23;;
6828;SDS011;17930;48.592;8.868;2023-07-02T07:01:05;17.30;;;8.63;;
6828;SDS011;17930;48.592;8.868;2023-07-02T07:03:34;14.17;;;8.23;;
6828;SDS011;17930;48.592;8.868;2023-07-02T07:06:01;14.23;;;8.10;;
6828;SDS011;17930;48.592;8.868;2023-07-02T07:08:28;17.33;;;9.33;;
6828;SDS011;17930;48.592;8.868;2023-07-02T07:10:55;14.37;;;8.83;;
6828;SDS011;17930;48.592;8.868;2023-07-02T07:13:22;17.23;;;8.47;;
6828;SDS011;17930;48.592;8.868;2023-07-02T07:15:48;15.43;;;8.63;;
6828;SDS011;17930;48.592;8.868;2023-07-02T07:18:15;15.63;;;9.07;;
6828;SDS011;17930;48.592;8.868;2023-07-02T07:20:45;14.83;;;9.13;;
6828;SDS011;17930;48.592;8.868;2023-07-02T07:23:11;15.33;;;8.67;;
6828;SDS011;17930;48.592;8.868;2023-07-02T07:25:38;17.23;;;9.10;;
6828;SDS011;17930;48.592;8.868;2023-07-02T07:28:05;12.43;;;7.90;;
6828;SDS011;17930;48.592;8.868;2023-07-02T07:30:31;16.43;;;8.37;;
6828;SDS011;17930;48.592;8.868;2023-07-02T07:32:58;14.07;;;9.03;;
6828;SDS011;17930;48.592;8.868;2023-07-02T07:35:25;16.27;;;9.67;;
6828;SDS011;17930;48.592;8.868;2023-07-02T07:37:53;16.67;;;8.70;;
6828;SDS011;17930;48.592;8.868;2023-07-02T07:40:19;15.63;;;9.50;;
6828;SDS011;17930;48.592;8.868;2023-07-02T07:42:46;14.30;;;7.93;;
6828;SDS011;17930;48.592;8.868;2023-07-02T07:45:13;19.10;;;9.17;;
6828;SDS011;17930;48.592;8.868;2023-07-02T07:47:39;14.23;;;8.73;;
6828;SDS011;17930;48.592;8.868;2023-07-02T07:50:07;17.23;;;9.60;;
6828;SDS011;17930;48.592;8.868;2023-07-02T07:52:36;14.63;;;9.10;;
6828;SDS011;17930;48.592;8.868;2023-07-02T07:55:05;16.33;;;9.67;;
6828;SDS011;17930;48.592;8.868;2023-07-02T07:57:33;14.93;;;9.40;;
6828;SDS011;17930;48.592;8.868;2023-07-02T08:00:01;16.03;;;9.40;;
6828;SDS011;17930;48.592;8.868;2023-07-02T08:02:29;18.40;;;9.17;;
6828;SDS011;17930;48.592;8.868;2023-07-02T08:04:56;16.20;;;9.33;;
6828;SDS011;17930;48.592;8.868;2023-07-02T08:07:22;16.17;;;10.27;;
6828;SDS011;17930;48.592;8.868;2023-07-02T08:09:49;15.60;;;9.63;;
6828;SDS011;17930;48.592;8.868;2023-07-02T08:12:18;17.80;;;9.67;;
6828;SDS011;17930;48.592;8.868;2023-07-02T08:14:44;15.23;;;10.00;;
6828;SDS011;17930;48.592;8.868;2023-07-02T08:17:11;19.67;;;9.97;;
6828;SDS011;17930;48.592;8.868;2023-07-02T08:19:38;17.47;;;9.20;;
6828;SDS011;17930;48.592;8.868;2023-07-02T08:22:04;14.43;;;9.63;;
6828;SDS011;17930;48.592;8.868;2023-07-02T08:24:31;13.60;;;9.77;;
6828;SDS011;17930;48.592;8.868;2023-07-02T08:26:59;15.40;;;9.40;;
6828;SDS011;17930;48.592;8.868;2023-07-02T08:29:29;17.37;;;9.63;;
6828;SDS011;17930;48.592;8.868;2023-07-02T08:31:55;15.13;;;9.30;;
6828;SDS011;17930;48.592;8.868;2023-07-02T08:34:22;13.77;;;8.50;;
6828;SDS011;17930;48.592;8.868;2023-07-02T08:36:49;13.50;;;8.70;;
6828;SDS011;17930;48.592;8.868;2023-07-02T08:39:16;13.77;;;8.20;;
6828;SDS011;17930;48.592;8.868;2023-07-02T08:41:44;13.87;;;8.63;;
6828;SDS011;17930;48.592;8.868;2023-07-02T08:44:12;13.70;;;8.00;;
6828;SDS011;17930;48.592;8.868;2023-07-02T08:46:41;13.33;;;7.50;;
6828;SDS011;17930;48.592;8.868;2023-07-02T08:49:08;11.23;;;7.80;;
6828;SDS011;17930;48.592;8.868;2023-07-02T08:51:35;15.23;;;8.07;;
6828;SDS011;17930;48.592;8.868;2023-07-02T08:54:02;12.40;;;7.53;;
6828;SDS011;17930;48.592;8.868;2023-07-02T08:56:29;13.27;;;7.97;;
6828;SDS011;17930;48.592;8.868;2023-07-02T08:58:56;14.53;;;7.33;;
6828;SDS011;17930;48.592;8.868;2023-07-02T09:01:23;15.53;;;7.60;;
6828;SDS011;17930;48.592;8.868;2023-07-02T09:03:51;15.37;;;8.33;;
6828;SDS011;17930;48.592;8.868;2023-07-02T09:06:18;16.70;;;8.10;;
6828;SDS011;17930;48.592;8.868;2023-07-02T09:08:45;16.47;;;9.23;;
6828;SDS011;17930;48.592;8.868;2023-07-02T09:11:12;15.63;;;8.70;;
6828;SDS011;17930;48.592;8.868;2023-07-02T09:13:47;15.13;;;8.73;;
6828;SDS011;17930;48.592;8.868;2023-07-02T09:16:24;14.87;;;9.20;;
6828;SDS011;17930;48.592;8.868;2023-07-02T09:19:00;15.13;;;8.53;;
6828;SDS011;17930;48.592;8.868;2023-07-02T09:21:37;13.97;;;8.67;;
6828;SDS011;17930;48.592;8.868;2023-07-02T09:24:13;18.07;;;9.20;;
6828;SDS011;17930;48.592;8.868;2023-07-02T09:26:44;12.57;;;9.23;;
6828;SDS011;17930;48.592;8.868;2023-07-02T09:29:11;12.77;;;8.43;;
6828;SDS011;17930;48.592;8.868;2023-07-02T09:31:44;16.53;;;10.70;;
6828;SDS011;17930;48.592;8.868;2023-07-02T09:34:13;15.07;;;9.73;;
6828;SDS011;17930;48.592;8.868;2023-07-02T09:36:41;16.00;;;9.97;;
6828;SDS011;17930;48.592;8.868;2023-07-02T09:39:10;18.20;;;10.60;;
6828;SDS011;17930;48.592;8.868;2023-07-02T09:41:39;16.73;;;10.40;;
6828;SDS011;17930;48.592;8.868;2023-07-02T09:44:07;12.90;;;8.67;;
6828;SDS011;17930;48.592;8.868;2023-07-02T09:46:35;14.67;;;9.73;;
6828;SDS011;17930;48.592;8.868;2023-07-02T09:49:04;16.57;;;10.23;;
6828;SDS011;17930;48.592;8.868;2023-07-02T09:51:35;15.47;;;9.80;;
6828;SDS011;17930;48.592;8.868;2023-07-02T09:54:02;17.70;;;11.10;;
6828;SDS011;17930;48.592;8.868;2023-07-02T09:56:29;14.53;;;9.80;;
6828;SDS011;17930;48.592;8.868;2023-07-02T09:58:55;14.60;;;10.27;;
6828;SDS011;17930;48.592;8.868;2023-07-02T10:01:22;15.93;;;10.77;;
6828;SDS011;17930;48.592;8.868;2023-07-02T10:03:49;16.27;;;10.23;;
6828;SDS011;17930;48.592;8.868;2023-07-02T10:06:16;15.13;;;10.27;;
6828;SDS011;17930;48.592;8.868;2023-07-02T10:08:53;16.23;;;11.00;;
6828;SDS011;17930;48.592;8.868;2023-07-02T10:11:21;14.80;;;10.30;;
6828;SDS011;17930;48.592;8.868;2023-07-02T10:13:59;20.47;;;11.37;;
6828;SDS011;17930;48.592;8.868;2023-07-02T10:16:26;15.87;;;10.93;;
6828;SDS011;17930;48.592;8.868;2023-07-02T10:18:53;17.80;;;12.40;;
6828;SDS011;17930;48.592;8.868;2023-07-02T10:21:20;19.90;;;11.70;;
6828;SDS011;17930;48.592;8.868;2023-07-02T10:23:47;18.87;;;12.10;;
6828;SDS011;17930;48.592;8.868;2023-07-02T10:26:16;17.97;;;11.30;;
6828;SDS011;17930;48.592;8.868;2023-07-02T10:28:55;16.33;;;11.03;;
6828;SDS011;17930;48.592;8.868;2023-07-02T10:31:22;18.90;;;11.20;;
6828;SDS011;17930;48.592;8.868;2023-07-02T10:33:49;17.00;;;11.57;;
6828;SDS011;17930;48.592;8.868;2023-07-02T10:36:19;18.70;;;12.60;;
6828;SDS011;17930;48.592;8.868;2023-07-02T10:38:47;18.43;;;11.43;;
6828;SDS011;17930;48.592;8.868;2023-07-02T10:41:24;18.03;;;10.83;;
6828;SDS011;17930;48.592;8.868;2023-07-02T10:43:51;17.50;;;11.40;;
6828;SDS011;17930;48.592;8.868;2023-07-02T10:46:19;16.67;;;11.07;;
6828;SDS011;17930;48.592;8.868;2023-07-02T10:48:52;16.53;;;10.57;;
6828;SDS011;17930;48.592;8.868;2023-07-02T10:51:19;16.27;;;11.30;;
6828;SDS011;17930;48.592;8.868;2023-07-02T10:53:55;16.53;;;11.10;;
6828;SDS011;17930;48.592;8.868;2023-07-02T10:56:24;15.37;;;10.93;;
6828;SDS011;17930;48.592;8.868;2023-07-02T10:58:51;16.27;;;11.10;;
6828;SDS011;17930;48.592;8.868;2023-07-02T11:01:21;18.30;;;11.07;;
6828;SDS011;17930;48.592;8.868;2023-07-02T11:03:54;15.50;;;10.37;;
6828;SDS011;17930;48.592;8.868;2023-07-02T11:06:22;15.83;;;10.80;;
6828;SDS011;17930;48.592;8.868;2023-07-02T11:08:49;15.50;;;10.53;;
6828;SDS011;17930;48.592;8.868;2023-07-02T11:11:15;16.03;;;11.00;;
6828;SDS011;17930;48.592;8.868;2023-07-02T11:13:46;16.73;;;11.07;;
6828;SDS011;17930;48.592;8.868;2023-07-02T11:16:18;18.00;;;11.43;;
6828;SDS011;17930;48.592;8.868;2023-07-02T11:18:48;18.17;;;10.73;;
6828;SDS011;17930;48.592;8.868;2023-07-02T11:21:14;19.63;;;11.23;;
6828;SDS011;17930;48.592;8.868;2023-07-02T11:23:41;16.80;;;10.73;;
6828;SDS011;17930;48.592;8.868;2023-07-02T11:26:08;15.13;;;11.20;;
6828;SDS011;17930;48.592;8.868;2023-07-02T11:28:35;14.40;;;10.93;;
6828;SDS011;17930;48.592;8.868;2023-07-02T11:31:03;14.20;;;9.77;;
6828;SDS011;17930;48.592;8.868;2023-07-02T11:33:34;15.53;;;10.40;;
6828;SDS011;17930;48.592;8.868;2023-07-02T11:36:01;15.33;;;10.70;;
6828;SDS011;17930;48.592;8.868;2023-07-02T11:38:28;15.80;;;10.57;;
6828;SDS011;17930;48.592;8.868;2023-07-02T11:40:55;12.40;;;9.80;;
6828;SDS011;17930;48.592;8.868;2023-07-02T11:43:22;16.43;;;11.03;;
6828;SDS011;17930;48.592;8.868;2023-07-02T11:45:49;16.50;;;10.37;;
6828;SDS011;17930;48.592;8.868;2023-07-02T11:48:17;15.73;;;10.67;;
6828;SDS011;17930;48.592;8.868;2023-07-02T11:50:45;13.67;;;10.10;;
6828;SDS011;17930;48.592;8.868;2023-07-02T11:53:12;14.47;;;9.70;;
6828;SDS011;17930;48.592;8.868;2023-07-02T11:55:39;15.10;;;10.00;;
6828;SDS011;17930;48.592;8.868;2023-07-02T11:58:06;16.63;;;9.87;;
6828;SDS011;17930;48.592;8.868;2023-07-02T12:00:32;15.50;;;10.60;;
6828;SDS011;17930;48.592;8.868;2023-07-02T12:02:59;15.63;;;9.83;;
6828;SDS011;17930;48.592;8.868;2023-07-02T12:05:27;13.13;;;9.63;;
6828;SDS011;17930;48.592;8.868;2023-07-02T12:07:54;13.93;;;10.10;;
6828;SDS011;17930;48.592;8.868;2023-07-02T12:10:20;16.47;;;10.07;;
6828;SDS011;17930;48.592;8.868;2023-07-02T12:12:47;15.00;;;10.23;;
6828;SDS011;17930;48.592;8.868;2023-07-02T12:15:13;14.97;;;10.00;;
6828;SDS011;17930;48.592;8.868;2023-07-02T12:17:40;13.70;;;9.83;;
6828;SDS011;17930;48.592;8.868;2023-07-02T12:20:07;13.63;;;9.53;;
6828;SDS011;17930;48.592;8.868;2023-07-02T12:22:36;14.63;;;9.90;;
6828;SDS011;17930;48.592;8.868;2023-07-02T12:25:03;15.00;;;9.90;;
6828;SDS011;17930;48.592;8.868;2023-07-02T12:27:31;15.57;;;11.00;;
6828;SDS011;17930;48.592;8.868;2023-07-02T12:29:58;15.23;;;9.40;;
6828;SDS011;17930;48.592;8.868;2023-07-02T12:32:24;17.47;;;11.03;;
6828;SDS011;17930;48.592;8.868;2023-07-02T12:34:51;13.30;;;9.87;;
6828;SDS011;17930;48.592;8.868;2023-07-02T12:37:18;14.67;;;9.33;;
6828;SDS011;17930;48.592;8.868;2023-07-02T12:39:47;15.27;;;9.83;;
6828;SDS011;17930;48.592;8.868;2023-07-02T12:42:14;14.53;;;9.93;;
6828;SDS011;17930;48.592;8.868;2023-07-02T12:44:40;15.33;;;10.10;;
6828;SDS011;17930;48.592;8.868;2023-07-02T12:47:07;12.67;;;10.20;;
6828;SDS011;17930;48.592;8.868;2023-07-02T12:49:34;16.83;;;10.70;;
6828;SDS011;17930;48.592;8.868;2023-07-02T12:52:00;12.03;;;8.67;;
6828;SDS011;17930;48.592;8.868;2023-07-02T12:54:27;13.23;;;9.73;;
6828;SDS011;17930;48.592;8.868;2023-07-02T12:56:56;13.40;;;9.70;;
6828;SDS011;17930;48.592;8.868;2023-07-02T12:59:22;14.33;;;9.90;;
6828;SDS011;17930;48.592;8.868;2023-07-02T13:01:49;14.50;;;10.10;;
6828;SDS011;17930;48.592;8.868;2023-07-02T13:04:16;14.40;;;9.40;;
6828;SDS011;17930;48.592;8.868;2023-07-02T13:06:42;15.13;;;10.80;;
6828;SDS011;17930;48.592;8.868;2023-07-02T13:09:10;12.93;;;9.83;;
6828;SDS011;17930;48.592;8.868;2023-07-02T13:11:37;13.53;;;9.97;;
6828;SDS011;17930;48.592;8.868;2023-07-02T13:14:05;13.73;;;10.07;;
6828;SDS011;17930;48.592;8.868;2023-07-02T13:16:32;14.57;;;9.87;;
6828;SDS011;17930;48.592;8.868;2023-07-02T13:18:59;16.87;;;9.63;;
6828;SDS011;17930;48.592;8.868;2023-07-02T13:21:26;12.07;;;9.13;;
6828;SDS011;17930;48.592;8.868;2023-07-02T13:23:53;15.37;;;10.27;;
6828;SDS011;17930;48.592;8.868;2023-07-02T13:26:20;15.83;;;11.53;;
6828;SDS011;17930;48.592;8.868;2023-07-02T13:28:46;15.23;;;10.37;;
6828;SDS011;17930;48.592;8.868;2023-07-02T13:31:14;13.27;;;9.73;;
6828;SDS011;17930;48.592;8.868;2023-07-02T13:33:42;15.67;;;11.63;;
6828;SDS011;17930;48.592;8.868;2023-07-02T13:36:08;15.37;;;10.90;;
6828;SDS011;17930;48.592;8.868;2023-07-02T13:38:35;14.17;;;11.30;;
6828;SDS011;17930;48.592;8.868;2023-07-02T13:41:02;17.00;;;11.53;;
6828;SDS011;17930;48.592;8.868;2023-07-02T13:43:29;16.50;;;12.47;;
6828;SDS011;17930;48.592;8.868;2023-07-02T13:45:56;16.90;;;11.87;;
6828;SDS011;17930;48.592;8.868;2023-07-02T13:48:24;19.00;;;11.63;;
6828;SDS011;17930;48.592;8.868;2023-07-02T13:50:50;14.93;;;10.60;;
6828;SDS011;17930;48.592;8.868;2023-07-02T13:53:17;15.90;;;11.93;;
6828;SDS011;17930;48.592;8.868;2023-07-02T13:55:44;15.80;;;11.80;;
6828;SDS011;17930;48.592;8.868;2023-07-02T13:58:11;15.77;;;12.03;;
6828;SDS011;17930;48.592;8.868;2023-07-02T14:00:38;17.20;;;11.50;;
6828;SDS011;17930;48.592;8.868;2023-07-02T14:03:05;14.90;;;10.73;;
6828;SDS011;17930;48.592;8.868;2023-07-02T14:05:32;16.67;;;11.40;;
6828;SDS011;17930;48.592;8.868;2023-07-02T14:07:59;15.87;;;11.03;;
6828;SDS011;17930;48.592;8.868;2023-07-02T14:10:26;15.87;;;11.27;;
6828;SDS011;17930;48.592;8.868;2023-07-02T14:12:53;15.27;;;11.50;;
6828;SDS011;17930;48.592;8.868;2023-07-02T14:15:20;16.17;;;11.40;;
6828;SDS011;17930;48.592;8.868;2023-07-02T14:17:49;17.80;;;11.90;;
6828;SDS011;17930;48.592;8.868;2023-07-02T14:20:16;13.83;;;11.10;;
6828;SDS011;17930;48.592;8.868;2023-07-02T14:22:43;15.00;;;11.13;;
6828;SDS011;17930;48.592;8.868;2023-07-02T14:25:10;16.17;;;11.70;;
6828;SDS011;17930;48.592;8.868;2023-07-02T14:27:37;20.03;;;11.17;;
6828;SDS011;17930;48.592;8.868;2023-07-02T14:30:04;14.90;;;11.10;;
6828;SDS011;17930;48.592;8.868;2023-07-02T14:32:33;14.93;;;11.37;;
6828;SDS011;17930;48.592;8.868;2023-07-02T14:35:01;13.30;;;10.30;;
6828;SDS011;17930;48.592;8.868;2023-07-02T14:37:28;17.37;;;10.83;;
6828;SDS011;17930;48.592;8.868;2023-07-02T14:39:55;16.20;;;10.50;;
6828;SDS011;17930;48.592;8.868;2023-07-02T14:42:21;17.23;;;11.03;;
6828;SDS011;17930;48.592;8.868;2023-07-02T14:44:48;13.03;;;10.60;;
6828;SDS011;17930;48.592;8.868;2023-07-02T14:47:14;15.57;;;10.33;;
6828;SDS011;17930;48.592;8.868;2023-07-02T14:49:41;15.53;;;10.93;;
6828;SDS011;17930;48.592;8.868;2023-07-02T14:52:09;13.23;;;10.27;;